Time;durP1;ratioP1;P1;durP2;ratioP2;P2;SDS_P1;SDS_P2;PMS_P1;PMS_P2;Temp;Humidity;BMP_temperature;BMP_pressure;BME280_temperature;BME280_humidity;BME280_pressure;Samples;Min_cycle;Max_cycle;Signal;HPM_P1;HPM_P2
2022/05/12 00:01:45;;;;;;;5.30;3.53;;;;;;;;;;4823890;29;20789;-60
2022/05/12 00:04:11;;;;;;;7.63;2.80;;;;;;;;;;4823771;29;20710;-62
2022/05/12 00:06:37;;;;;;;6.97;3.20;;;;;;;;;;4812979;29;20046;-60
2022/05/12 00:09:03;;;;;;;6.75;3.15;;;;;;;;;;4805398;29;20361;-62
2022/05/12 00:11:30;;;;;;;5.97;3.10;;;;;;;;;;4808048;29;20097;-62
2022/05/12 00:13:56;;;;;;;7.13;3.13;;;;;;;;;;4823831;29;20121;-61
2022/05/12 00:16:22;;;;;;;9.18;3.72;;;;;;;;;;4823730;29;20471;-60
2022/05/12 00:18:49;;;;;;;5.68;3.28;;;;;;;;;;4823503;29;20038;-60
2022/05/12 00:21:15;;;;;;;7.35;3.53;;;;;;;;;;4813237;29;20079;-61
2022/05/12 00:23:41;;;;;;;4.30;3.25;;;;;;;;;;4788892;29;20373;-61
2022/05/12 00:26:07;;;;;;;6.75;3.75;;;;;;;;;;4815928;29;20042;-61
2022/05/12 00:28:33;;;;;;;5.10;3.30;;;;;;;;;;4823038;29;20030;-61
2022/05/12 00:30:59;;;;;;;6.57;3.47;;;;;;;;;;4823329;29;20112;-61
2022/05/12 00:33:27;;;;;;;5.53;3.70;;;;;;;;;;4823441;29;20109;-61
2022/05/12 00:35:54;;;;;;;7.57;3.95;;;;;;;;;;4823266;29;20537;-60
2022/05/12 00:38:20;;;;;;;9.07;3.83;;;;;;;;;;4823209;29;20065;-61
2022/05/12 00:40:47;;;;;;;5.90;3.53;;;;;;;;;;4810922;29;20042;-61
2022/05/12 00:43:32;;;;;;;6.53;3.75;;;;;;;;;;4823237;29;20126;-60
2022/05/12 00:45:58;;;;;;;5.70;3.67;;;;;;;;;;4808874;29;20522;-60
2022/05/12 00:48:24;;;;;;;6.88;3.85;;;;;;;;;;4812169;29;20460;-60
2022/05/12 00:50:50;;;;;;;7.63;3.60;;;;;;;;;;4809812;29;20487;-60
2022/05/12 00:53:16;;;;;;;6.63;3.65;;;;;;;;;;4817228;29;20125;-60
2022/05/12 00:55:44;;;;;;;7.60;4.00;;;;;;;;;;4822968;29;20090;-60
2022/05/12 00:58:12;;;;;;;5.40;4.00;;;;;;;;;;4823237;29;20043;-60
2022/05/12 01:00:39;;;;;;;8.85;4.30;;;;;;;;;;4823312;29;20088;-60
2022/05/12 01:03:09;;;;;;;8.25;4.28;;;;;;;;;;4823000;29;20046;-60
2022/05/12 01:05:36;;;;;;;8.00;3.90;;;;;;;;;;4805899;29;20642;-60
2022/05/12 01:08:02;;;;;;;5.38;3.70;;;;;;;;;;4804790;29;20039;-60
2022/05/12 01:10:29;;;;;;;7.95;4.00;;;;;;;;;;4806917;29;20034;-60
2022/05/12 01:12:55;;;;;;;7.50;4.32;;;;;;;;;;4822669;29;20058;-60
2022/05/12 01:15:24;;;;;;;7.72;4.07;;;;;;;;;;4804537;29;20030;-60
2022/05/12 01:17:50;;;;;;;7.38;4.10;;;;;;;;;;4804748;29;20031;-60
2022/05/12 01:20:17;;;;;;;6.32;3.90;;;;;;;;;;4818322;29;20047;-61
2022/05/12 01:22:48;;;;;;;5.82;4.10;;;;;;;;;;4804216;29;20166;-61
2022/05/12 01:25:17;;;;;;;7.13;3.90;;;;;;;;;;4808718;29;20429;-60
2022/05/12 01:27:43;;;;;;;6.78;4.30;;;;;;;;;;4822435;29;20399;-61
2022/05/12 01:30:10;;;;;;;5.93;4.00;;;;;;;;;;4805767;29;20512;-61
2022/05/12 01:32:37;;;;;;;6.22;4.05;;;;;;;;;;4822356;29;20169;-61
2022/05/12 01:35:04;;;;;;;7.80;4.32;;;;;;;;;;4822528;29;20502;-60
2022/05/12 01:37:31;;;;;;;5.82;3.95;;;;;;;;;;4817208;29;20117;-60
2022/05/12 01:39:57;;;;;;;10.57;4.22;;;;;;;;;;4803113;29;20031;-60
2022/05/12 01:42:23;;;;;;;7.85;4.40;;;;;;;;;;4803819;29;20090;-60
2022/05/12 01:44:49;;;;;;;6.10;4.07;;;;;;;;;;4804087;29;20034;-60
2022/05/12 01:47:16;;;;;;;7.20;4.40;;;;;;;;;;4804254;29;20165;-61
2022/05/12 01:49:42;;;;;;;8.25;4.03;;;;;;;;;;4817717;29;20069;-61
2022/05/12 01:52:10;;;;;;;9.77;4.50;;;;;;;;;;4822148;29;20031;-61
2022/05/12 01:54:36;;;;;;;9.27;4.57;;;;;;;;;;4808564;29;20441;-60
2022/05/12 01:57:03;;;;;;;9.52;4.40;;;;;;;;;;4815711;29;20030;-60
2022/05/12 01:59:29;;;;;;;6.90;4.30;;;;;;;;;;4822309;29;20065;-60
2022/05/12 02:01:55;;;;;;;7.63;4.47;;;;;;;;;;4823168;29;20099;-60
2022/05/12 02:04:21;;;;;;;7.13;4.50;;;;;;;;;;4824016;29;20433;-60
2022/05/12 02:06:48;;;;;;;7.18;4.93;;;;;;;;;;4807209;29;20142;-61
2022/05/12 02:09:14;;;;;;;7.05;4.65;;;;;;;;;;4803910;29;20476;-60
2022/05/12 02:11:40;;;;;;;7.20;4.18;;;;;;;;;;4803748;29;20122;-60
2022/05/12 02:14:07;;;;;;;7.63;4.57;;;;;;;;;;4804115;29;20034;-60
2022/05/12 02:16:33;;;;;;;6.85;4.60;;;;;;;;;;4807957;29;20034;-61
2022/05/12 02:19:00;;;;;;;7.55;4.47;;;;;;;;;;4821990;29;20073;-61
2022/05/12 02:21:26;;;;;;;6.32;4.53;;;;;;;;;;4821849;29;20065;-60
2022/05/12 02:23:52;;;;;;;7.07;4.72;;;;;;;;;;4821805;29;20035;-60
2022/05/12 02:26:18;;;;;;;8.35;4.82;;;;;;;;;;4822016;29;20030;-61
2022/05/12 02:28:44;;;;;;;6.55;4.35;;;;;;;;;;4821956;29;20101;-60
2022/05/12 02:31:10;;;;;;;6.43;4.20;;;;;;;;;;4805852;29;20035;-61
2022/05/12 02:33:38;;;;;;;6.82;4.25;;;;;;;;;;4803833;29;20039;-61
2022/05/12 02:36:04;;;;;;;8.23;4.38;;;;;;;;;;4819762;29;20453;-61
2022/05/12 02:38:30;;;;;;;5.55;4.18;;;;;;;;;;4821815;29;20523;-60
2022/05/12 02:40:56;;;;;;;6.85;4.32;;;;;;;;;;4821607;29;20058;-60
2022/05/12 02:43:23;;;;;;;6.30;4.22;;;;;;;;;;4822053;29;20110;-61
2022/05/12 02:45:50;;;;;;;6.07;3.80;;;;;;;;;;4821971;29;20063;-61
2022/05/12 02:48:17;;;;;;;8.13;4.00;;;;;;;;;;4821525;29;20034;-59
2022/05/12 02:50:43;;;;;;;5.60;3.75;;;;;;;;;;4806372;29;20515;-61
2022/05/12 02:53:09;;;;;;;7.28;4.80;;;;;;;;;;4806910;29;20145;-60
2022/05/12 02:55:35;;;;;;;6.30;3.90;;;;;;;;;;4811400;29;20068;-61
2022/05/12 02:58:01;;;;;;;4.88;3.97;;;;;;;;;;4824954;29;20491;-61
2022/05/12 03:00:27;;;;;;;8.43;4.38;;;;;;;;;;4818652;29;20377;-61
2022/05/12 03:02:53;;;;;;;6.00;3.97;;;;;;;;;;4806533;29;20042;-61
2022/05/12 03:05:19;;;;;;;6.95;4.35;;;;;;;;;;4805473;29;20121;-60
2022/05/12 03:07:45;;;;;;;7.75;4.80;;;;;;;;;;4823256;29;20387;-60
2022/05/12 03:10:12;;;;;;;9.02;4.63;;;;;;;;;;4808433;29;20031;-60
2022/05/12 03:12:38;;;;;;;8.07;4.25;;;;;;;;;;4806488;29;20114;-59
2022/05/12 03:15:05;;;;;;;6.97;4.03;;;;;;;;;;4817111;29;20586;-61
2022/05/12 03:17:31;;;;;;;6.95;4.30;;;;;;;;;;4824674;29;20105;-60
2022/05/12 03:19:57;;;;;;;6.00;3.67;;;;;;;;;;4819641;29;20062;-61
2022/05/12 03:22:23;;;;;;;8.40;4.45;;;;;;;;;;4806513;29;20388;-60
2022/05/12 03:24:49;;;;;;;5.32;3.72;;;;;;;;;;4806252;29;20483;-61
2022/05/12 03:27:15;;;;;;;6.53;3.70;;;;;;;;;;4817999;29;20042;-60
2022/05/12 03:29:41;;;;;;;5.22;3.83;;;;;;;;;;4824331;29;20033;-61
2022/05/12 03:32:10;;;;;;;6.78;3.80;;;;;;;;;;4824618;29;20035;-61
2022/05/12 03:34:38;;;;;;;6.25;3.92;;;;;;;;;;4824394;29;20026;-60
2022/05/12 03:37:05;;;;;;;10.40;4.72;;;;;;;;;;4810608;29;20031;-61
2022/05/12 03:39:31;;;;;;;8.13;4.68;;;;;;;;;;4806232;29;20495;-61
2022/05/12 03:41:57;;;;;;;8.90;5.78;;;;;;;;;;4805919;29;20049;-61
2022/05/12 03:47:08;;;;;;;11.02;4.57;;;;;;;;;;4806218;29;20042;-61
2022/05/12 03:49:34;;;;;;;9.32;4.93;;;;;;;;;;4805863;29;20065;-61
2022/05/12 03:52:00;;;;;;;8.95;5.28;;;;;;;;;;4818132;29;20124;-62
2022/05/12 03:54:26;;;;;;;12.32;5.63;;;;;;;;;;4808633;29;20031;-62
2022/05/12 03:56:52;;;;;;;10.23;5.13;;;;;;;;;;4811723;29;20061;-61
2022/05/12 03:59:18;;;;;;;9.77;5.20;;;;;;;;;;4824067;29;20019;-61
2022/05/12 04:01:44;;;;;;;12.68;5.70;;;;;;;;;;4823816;29;20039;-60
2022/05/12 04:04:10;;;;;;;11.52;4.97;;;;;;;;;;4823295;29;20030;-63
2022/05/12 04:06:36;;;;;;;11.18;5.10;;;;;;;;;;4805709;29;20049;-61
2022/05/12 04:09:02;;;;;;;13.77;5.32;;;;;;;;;;4815987;29;20031;-61
2022/05/12 04:11:28;;;;;;;8.98;5.20;;;;;;;;;;4823622;29;20034;-61
2022/05/12 04:13:54;;;;;;;7.68;4.70;;;;;;;;;;4823796;29;20033;-61
2022/05/12 04:16:22;;;;;;;10.90;5.53;;;;;;;;;;4823386;29;20036;-60
2022/05/12 04:18:48;;;;;;;12.60;5.50;;;;;;;;;;4809543;29;20035;-61
2022/05/12 04:21:16;;;;;;;7.85;5.13;;;;;;;;;;4823287;29;20038;-61
2022/05/12 04:23:42;;;;;;;8.48;5.05;;;;;;;;;;4812349;29;20428;-62
2022/05/12 04:26:08;;;;;;;10.82;5.15;;;;;;;;;;4804908;29;20396;-62
2022/05/12 04:28:34;;;;;;;8.07;5.35;;;;;;;;;;4811317;29;20030;-61
2022/05/12 04:31:00;;;;;;;9.90;4.82;;;;;;;;;;4823279;29;20168;-61
2022/05/12 04:36:11;;;;;;;13.02;5.93;;;;;;;;;;4806960;29;20548;-61
2022/05/12 04:38:37;;;;;;;13.65;5.25;;;;;;;;;;4805014;29;20134;-62
2022/05/12 04:41:03;;;;;;;15.93;6.07;;;;;;;;;;4817670;29;20395;-62
2022/05/12 04:43:29;;;;;;;12.85;5.88;;;;;;;;;;4805449;29;20034;-63
2022/05/12 04:45:56;;;;;;;12.52;6.13;;;;;;;;;;4805199;29;20125;-61
2022/05/12 04:48:22;;;;;;;11.27;5.50;;;;;;;;;;4804761;29;20038;-62
2022/05/12 04:50:48;;;;;;;17.90;6.90;;;;;;;;;;4804793;29;20389;-62
2022/05/12 04:53:14;;;;;;;14.23;8.23;;;;;;;;;;4804724;29;20122;-62
2022/05/12 04:55:40;;;;;;;12.00;6.50;;;;;;;;;;4804089;29;20019;-62
2022/05/12 04:58:06;;;;;;;16.95;6.30;;;;;;;;;;4813126;29;20070;-62
2022/05/12 05:00:35;;;;;;;13.18;5.63;;;;;;;;;;4815709;29;20404;-61
2022/05/12 05:03:01;;;;;;;10.93;6.00;;;;;;;;;;4814665;29;20034;-62
2022/05/12 05:05:27;;;;;;;10.82;5.60;;;;;;;;;;4822434;29;20395;-62
2022/05/12 05:07:54;;;;;;;10.50;6.47;;;;;;;;;;4804867;29;20027;-62
2022/05/12 05:10:20;;;;;;;10.27;5.55;;;;;;;;;;4788394;29;20506;-62
2022/05/12 05:12:46;;;;;;;8.48;5.57;;;;;;;;;;4818667;29;20175;-62
2022/05/12 05:15:13;;;;;;;9.45;6.20;;;;;;;;;;4820021;29;20042;-62
2022/05/12 05:17:40;;;;;;;12.20;6.10;;;;;;;;;;4804706;29;20039;-62
2022/05/12 05:20:07;;;;;;;16.25;9.07;;;;;;;;;;4818206;29;20121;-62
2022/05/12 05:22:33;;;;;;;10.45;6.18;;;;;;;;;;4805324;29;20047;-63
2022/05/12 05:25:00;;;;;;;10.98;6.25;;;;;;;;;;4804352;29;20499;-60
2022/05/12 05:27:26;;;;;;;17.98;5.70;;;;;;;;;;4804204;29;20039;-62
2022/05/12 05:29:52;;;;;;;12.15;6.00;;;;;;;;;;4804237;29;20038;-63
2022/05/12 05:32:20;;;;;;;16.98;5.50;;;;;;;;;;4804525;29;20035;-62
2022/05/12 05:34:46;;;;;;;14.13;5.22;;;;;;;;;;4800968;29;20031;-60
2022/05/12 05:37:12;;;;;;;11.60;5.55;;;;;;;;;;4804771;29;20116;-59
2022/05/12 05:39:38;;;;;;;12.70;5.40;;;;;;;;;;4822263;29;20521;-60
2022/05/12 05:42:07;;;;;;;11.05;5.43;;;;;;;;;;4821712;29;20113;-59
2022/05/12 05:44:34;;;;;;;10.35;5.13;;;;;;;;;;4814526;29;20066;-59
2022/05/12 05:47:01;;;;;;;10.43;5.40;;;;;;;;;;4804754;29;20506;-58
2022/05/12 05:49:28;;;;;;;9.82;5.22;;;;;;;;;;4803625;29;20047;-61
2022/05/12 05:54:39;;;;;;;10.10;4.97;;;;;;;;;;4815547;29;20494;-59
2022/05/12 05:57:05;;;;;;;15.05;5.15;;;;;;;;;;4804748;29;20084;-61
2022/05/12 05:59:31;;;;;;;8.48;4.60;;;;;;;;;;4803874;29;20511;-61
2022/05/12 06:01:57;;;;;;;7.97;4.57;;;;;;;;;;4809971;29;20050;-61
2022/05/12 06:04:24;;;;;;;5.65;4.25;;;;;;;;;;4813256;29;20097;-61
2022/05/12 06:06:50;;;;;;;10.05;4.60;;;;;;;;;;4820635;29;20034;-63
2022/05/12 06:09:16;;;;;;;8.18;3.80;;;;;;;;;;4820540;29;20030;-62
2022/05/12 06:11:44;;;;;;;9.35;4.10;;;;;;;;;;4820565;29;20048;-62
2022/05/12 06:14:10;;;;;;;12.35;4.75;;;;;;;;;;4820525;29;20022;-64
2022/05/12 06:16:36;;;;;;;8.82;4.45;;;;;;;;;;4820749;29;20440;-64
2022/05/12 06:19:03;;;;;;;9.68;4.80;;;;;;;;;;4824813;29;20101;-65
2022/05/12 06:21:29;;;;;;;7.53;4.68;;;;;;;;;;4820320;29;20038;-63
2022/05/12 06:23:55;;;;;;;9.73;4.50;;;;;;;;;;4820442;29;20402;-63
2022/05/12 06:26:22;;;;;;;10.40;5.20;;;;;;;;;;4822664;29;20023;-63
2022/05/12 06:28:49;;;;;;;7.68;4.88;;;;;;;;;;4823719;29;20428;-63
2022/05/12 06:31:19;;;;;;;14.25;6.20;;;;;;;;;;4823835;29;20065;-63
2022/05/12 06:33:45;;;;;;;9.52;4.97;;;;;;;;;;4823675;29;20026;-64
2022/05/12 06:36:12;;;;;;;8.05;4.70;;;;;;;;;;4815533;29;20112;-63
2022/05/12 06:38:38;;;;;;;9.02;4.93;;;;;;;;;;4815039;29;20034;-63
2022/05/12 06:41:04;;;;;;;8.88;5.55;;;;;;;;;;4816871;29;20037;-63
2022/05/12 06:43:31;;;;;;;9.95;5.60;;;;;;;;;;4815098;29;20050;-64
2022/05/12 06:45:57;;;;;;;9.45;5.25;;;;;;;;;;4814814;29;20080;-64
2022/05/12 06:48:24;;;;;;;9.07;4.85;;;;;;;;;;4815913;29;20026;-64
2022/05/12 06:50:50;;;;;;;10.48;4.78;;;;;;;;;;4815038;29;20427;-63
2022/05/12 06:53:16;;;;;;;12.48;4.82;;;;;;;;;;4814931;29;20060;-64
2022/05/12 06:55:42;;;;;;;9.13;4.88;;;;;;;;;;4816561;29;20035;-64
2022/05/12 06:58:10;;;;;;;8.13;5.03;;;;;;;;;;4816518;29;20049;-63
2022/05/12 07:00:36;;;;;;;8.30;5.32;;;;;;;;;;4815968;29;20045;-65
2022/05/12 07:03:04;;;;;;;10.05;4.93;;;;;;;;;;4815721;29;20042;-64
2022/05/12 07:05:30;;;;;;;6.85;4.65;;;;;;;;;;4815203;29;20027;-65
2022/05/12 07:07:56;;;;;;;6.93;4.80;;;;;;;;;;4814667;29;20030;-65
2022/05/12 07:10:24;;;;;;;7.13;4.40;;;;;;;;;;4816090;29;20031;-65
2022/05/12 07:12:51;;;;;;;8.43;6.13;;;;;;;;;;4814876;29;20524;-64
2022/05/12 07:15:17;;;;;;;22.02;9.85;;;;;;;;;;4814763;29;20034;-64
2022/05/12 07:17:44;;;;;;;12.82;8.07;;;;;;;;;;4807353;29;20369;-65
2022/05/12 07:28:28;;;;;;;8.00;4.32;;;;;;;;;;4828919;29;20053;-63
2022/05/12 07:31:01;;;;;;;6.35;4.10;;;;;;;;;;4843331;29;20034;-65
2022/05/12 07:33:33;;;;;;;5.53;3.80;;;;;;;;;;4843109;29;20023;-67
2022/05/12 07:36:05;;;;;;;7.85;4.40;;;;;;;;;;4828049;29;20098;-66
2022/05/12 07:38:32;;;;;;;;;;;;;;;;;;4823802;29;20034;-63
2022/05/12 07:40:58;;;;;;;8.10;4.10;;;;;;;;;;4824060;29;20365;-63
2022/05/12 07:43:24;;;;;;;7.97;4.05;;;;;;;;;;4823919;29;20125;-64
2022/05/12 07:45:50;;;;;;;5.93;3.88;;;;;;;;;;4823921;29;20034;-63
2022/05/12 07:48:17;;;;;;;7.88;4.35;;;;;;;;;;4823934;29;20030;-63
2022/05/12 07:50:43;;;;;;;9.75;4.93;;;;;;;;;;4823661;29;20053;-68
2022/05/12 07:53:09;;;;;;;6.55;4.20;;;;;;;;;;4823808;29;20788;-67
2022/05/12 07:55:35;;;;;;;8.18;3.78;;;;;;;;;;4823928;29;20037;-64
2022/05/12 07:58:03;;;;;;;6.47;4.53;;;;;;;;;;4823514;29;20034;-67
2022/05/12 08:00:30;;;;;;;8.48;4.10;;;;;;;;;;4823546;29;20030;-64
2022/05/12 08:02:56;;;;;;;6.13;4.47;;;;;;;;;;4823732;29;20511;-64
2022/05/12 08:05:23;;;;;;;8.00;3.78;;;;;;;;;;4823368;29;20083;-63
2022/05/12 08:07:49;;;;;;;10.18;3.90;;;;;;;;;;4823642;29;20057;-63
2022/05/12 08:10:16;;;;;;;7.20;3.45;;;;;;;;;;4823571;29;20057;-63
2022/05/12 08:12:42;;;;;;;8.40;4.10;;;;;;;;;;4823661;29;20372;-65
2022/05/12 08:15:09;;;;;;;6.75;3.92;;;;;;;;;;4823448;29;20030;-65
2022/05/12 08:17:36;;;;;;;6.75;4.20;;;;;;;;;;4823114;29;20026;-64
2022/05/12 08:20:05;;;;;;;7.55;3.92;;;;;;;;;;4823165;29;20179;-65
2022/05/12 08:22:31;;;;;;;7.22;3.70;;;;;;;;;;4823475;29;20502;-64
2022/05/12 08:24:57;;;;;;;5.13;3.40;;;;;;;;;;4823566;29;20034;-64
2022/05/12 08:27:24;;;;;;;6.88;3.72;;;;;;;;;;4823489;29;20041;-65
2022/05/12 08:29:51;;;;;;;4.80;3.75;;;;;;;;;;4823273;29;20030;-64
2022/05/12 08:32:17;;;;;;;9.52;3.88;;;;;;;;;;4823393;29;20041;-64
2022/05/12 08:34:44;;;;;;;6.55;3.53;;;;;;;;;;4823309;29;20034;-63
2022/05/12 08:37:10;;;;;;;8.38;4.00;;;;;;;;;;4823274;29;20383;-64
2022/05/12 08:39:37;;;;;;;9.10;3.60;;;;;;;;;;4822966;29;20036;-64
2022/05/12 08:42:15;;;;;;;5.43;3.72;;;;;;;;;;4822937;29;20483;-62
2022/05/12 08:44:41;;;;;;;9.43;3.80;;;;;;;;;;4823178;29;20160;-63
2022/05/12 08:47:15;;;;;;;8.15;4.28;;;;;;;;;;4823175;29;20042;-64
2022/05/12 08:49:46;;;;;;;11.07;4.13;;;;;;;;;;4822524;29;20051;-63
2022/05/12 08:52:21;;;;;;;9.30;3.87;;;;;;;;;;4823262;29;20040;-64
2022/05/12 08:54:51;;;;;;;8.55;4.15;;;;;;;;;;4823201;29;20038;-64
2022/05/12 08:57:29;;;;;;;7.18;3.58;;;;;;;;;;4813065;29;20054;-63
2022/05/12 08:59:56;;;;;;;7.18;3.78;;;;;;;;;;4804388;29;20388;-63
2022/05/12 09:02:41;;;;;;;10.75;3.72;;;;;;;;;;4804312;29;20035;-64
2022/05/12 09:05:11;;;;;;;11.02;3.90;;;;;;;;;;4804571;29;20073;-64
2022/05/12 09:07:50;;;;;;;11.63;4.10;;;;;;;;;;4804677;29;20031;-62
2022/05/12 09:10:22;;;;;;;7.72;4.28;;;;;;;;;;4804427;29;20045;-63
2022/05/12 09:12:48;;;;;;;;;;;;;;;;;;4804712;29;20079;-62
2022/05/12 09:15:14;;;;;;;11.20;4.38;;;;;;;;;;4804291;29;19913;-62
2022/05/12 09:17:45;;;;;;;8.93;3.70;;;;;;;;;;4803887;29;20054;-62
2022/05/12 09:20:12;;;;;;;9.27;3.87;;;;;;;;;;4803914;29;20400;-63
2022/05/12 09:22:41;;;;;;;9.70;4.60;;;;;;;;;;4803910;29;20344;-62
2022/05/12 09:25:07;;;;;;;7.45;3.70;;;;;;;;;;4804002;29;20548;-62
2022/05/12 09:27:35;;;;;;;6.35;3.42;;;;;;;;;;4803563;29;20039;-62
2022/05/12 09:30:04;;;;;;;5.93;3.60;;;;;;;;;;4803393;29;20031;-63
2022/05/12 09:32:32;;;;;;;7.10;3.47;;;;;;;;;;4803360;29;20031;-64
2022/05/12 09:35:10;;;;;;;5.75;3.30;;;;;;;;;;4803536;29;20369;-61
2022/05/12 09:37:40;;;;;;;8.30;3.40;;;;;;;;;;4803604;29;20095;-62
2022/05/12 09:40:24;;;;;;;6.10;3.70;;;;;;;;;;4803170;29;20492;-63
2022/05/12 09:42:52;;;;;;;7.88;3.40;;;;;;;;;;4802898;29;20054;-61
2022/05/12 09:45:23;;;;;;;7.25;3.88;;;;;;;;;;4803367;29;20030;-63
2022/05/12 09:47:49;;;;;;;6.97;3.47;;;;;;;;;;4801726;29;20091;-62
2022/05/12 09:50:20;;;;;;;7.85;3.75;;;;;;;;;;4803126;29;20050;-62
2022/05/12 09:52:58;;;;;;;7.32;3.88;;;;;;;;;;4804005;29;20578;-62
2022/05/12 09:55:27;;;;;;;6.38;4.13;;;;;;;;;;4803221;29;20031;-62
2022/05/12 09:58:00;;;;;;;5.47;3.60;;;;;;;;;;4802810;29;20444;-63
2022/05/12 10:00:29;;;;;;;7.47;4.03;;;;;;;;;;4802630;29;20085;-62
2022/05/12 10:09:04;;;;;;;8.23;3.40;;;;;;;;;;4728936;30;20085;-62
2022/05/12 10:11:31;;;;;;;5.38;3.38;;;;;;;;;;4729434;30;20052;-62
2022/05/12 10:14:00;;;;;;;6.22;3.00;;;;;;;;;;4729355;30;20045;-62
2022/05/12 10:16:28;;;;;;;8.35;3.53;;;;;;;;;;4729364;30;20132;-62
2022/05/12 10:18:55;;;;;;;7.15;3.80;;;;;;;;;;4729523;30;20051;-61
2022/05/12 10:21:32;;;;;;;6.22;3.65;;;;;;;;;;4729147;30;20126;-64
2022/05/12 10:24:16;;;;;;;5.55;3.78;;;;;;;;;;4729409;30;20049;-63
2022/05/12 10:26:50;;;;;;;7.65;3.72;;;;;;;;;;4729537;30;20083;-63
2022/05/12 10:29:46;;;;;;;6.88;3.60;;;;;;;;;;4728426;30;20040;-63
2022/05/12 10:32:15;;;;;;;6.03;3.40;;;;;;;;;;4677248;30;20416;-62
2022/05/12 10:34:56;;;;;;;8.15;3.65;;;;;;;;;;4677555;30;20049;-62
2022/05/12 10:37:34;;;;;;;7.30;3.50;;;;;;;;;;4677059;30;20042;-63
2022/05/12 10:40:19;;;;;;;8.32;3.60;;;;;;;;;;4695833;30;20127;-61
2022/05/12 10:42:54;;;;;;;6.30;3.55;;;;;;;;;;4728964;30;20139;-63
2022/05/12 10:45:24;;;;;;;9.35;3.30;;;;;;;;;;4729064;30;20536;-63
2022/05/12 10:47:50;;;;;;;6.55;3.30;;;;;;;;;;4729076;30;20169;-63
2022/05/12 10:50:16;;;;;;;7.18;3.40;;;;;;;;;;4728475;30;20052;-62
2022/05/12 10:52:43;;;;;;;9.57;3.53;;;;;;;;;;4729040;30;20578;-62
2022/05/12 10:55:15;;;;;;;6.03;3.30;;;;;;;;;;4728567;30;20075;-62
2022/05/12 10:57:59;;;;;;;6.60;3.40;;;;;;;;;;4728420;30;20037;-63
2022/05/12 11:00:25;;;;;;;4.53;3.20;;;;;;;;;;4728082;30;20075;-63
2022/05/12 11:02:54;;;;;;;6.78;3.58;;;;;;;;;;4728012;30;20064;-63
2022/05/12 11:05:29;;;;;;;7.47;3.60;;;;;;;;;;4728521;30;20494;-63
2022/05/12 11:08:14;;;;;;;6.07;3.30;;;;;;;;;;4740236;30;20063;-61
2022/05/12 11:10:44;;;;;;;7.93;3.80;;;;;;;;;;4799265;29;20034;-61
2022/05/12 11:13:17;;;;;;;6.43;3.47;;;;;;;;;;4804348;29;20059;-61
2022/05/12 11:15:50;;;;;;;7.25;3.40;;;;;;;;;;4805798;29;20043;-62
2022/05/12 11:18:22;;;;;;;7.35;3.90;;;;;;;;;;4806132;29;20035;-60
2022/05/12 11:20:53;;;;;;;7.32;3.80;;;;;;;;;;4806109;29;20034;-60
2022/05/12 11:23:19;;;;;;;7.90;3.37;;;;;;;;;;4805962;29;20066;-61
2022/05/12 11:25:54;;;;;;;8.45;3.80;;;;;;;;;;4805484;29;20030;-61
2022/05/12 11:31:14;;;;;;;7.00;3.60;;;;;;;;;;4805191;29;20100;-59
2022/05/12 11:33:41;;;;;;;9.48;4.07;;;;;;;;;;4806004;29;20071;-60
2022/05/12 11:36:11;;;;;;;9.52;4.13;;;;;;;;;;4806046;29;20904;-62
2022/05/12 11:38:42;;;;;;;6.50;3.80;;;;;;;;;;4805375;29;20069;-59
2022/05/12 11:41:30;;;;;;;7.75;3.83;;;;;;;;;;4805628;29;20037;-58
2022/05/12 11:44:26;;;;;;;7.28;4.07;;;;;;;;;;4805265;29;20043;-60
2022/05/12 11:46:55;;;;;;;7.82;3.72;;;;;;;;;;4805179;29;20039;-58
2022/05/12 11:49:21;;;;;;;8.32;3.78;;;;;;;;;;4805226;29;20440;-58
2022/05/12 11:51:55;;;;;;;7.38;4.00;;;;;;;;;;4804695;29;20050;-62
2022/05/12 11:54:30;;;;;;;9.73;4.40;;;;;;;;;;4788262;29;20106;-61
2022/05/12 11:56:58;;;;;;;8.27;3.95;;;;;;;;;;4787617;30;20050;-61
2022/05/12 11:59:27;;;;;;;5.40;3.90;;;;;;;;;;4787385;30;20489;-60
2022/05/12 12:01:56;;;;;;;6.40;3.97;;;;;;;;;;4787490;30;20425;-62
2022/05/12 12:04:37;;;;;;;11.48;3.97;;;;;;;;;;4787558;30;20202;-61
2022/05/12 12:07:04;;;;;;;8.18;4.10;;;;;;;;;;4787282;30;20545;-64
2022/05/12 12:09:35;;;;;;;10.43;4.38;;;;;;;;;;4787194;30;20081;-60
2022/05/12 12:12:03;;;;;;;8.45;4.03;;;;;;;;;;4786883;30;20490;-62
2022/05/12 12:14:48;;;;;;;7.80;4.47;;;;;;;;;;4787000;30;20035;-61
2022/05/12 12:17:33;;;;;;;7.18;3.88;;;;;;;;;;4787028;30;20039;-61
2022/05/12 12:20:03;;;;;;;9.65;4.32;;;;;;;;;;4786810;29;20488;-61
2022/05/12 12:22:36;;;;;;;6.85;3.90;;;;;;;;;;4786634;29;20488;-62
2022/05/12 12:25:13;;;;;;;7.63;4.00;;;;;;;;;;4786177;29;20028;-59
2022/05/12 12:27:57;;;;;;;7.22;3.85;;;;;;;;;;4786891;30;20081;-59
2022/05/12 12:30:32;;;;;;;8.43;3.60;;;;;;;;;;4786707;30;20553;-63
2022/05/12 12:33:10;;;;;;;6.53;3.78;;;;;;;;;;4786775;30;20035;-62
2022/05/12 12:35:56;;;;;;;6.97;3.65;;;;;;;;;;4787055;30;20027;-60
2022/05/12 12:38:51;;;;;;;9.52;4.00;;;;;;;;;;4786861;30;20038;-60
2022/05/12 12:41:17;;;;;;;8.10;4.45;;;;;;;;;;4782174;30;20504;-61
2022/05/12 12:43:49;;;;;;;11.55;4.30;;;;;;;;;;4786467;30;20496;-59
2022/05/12 12:46:18;;;;;;;9.65;3.97;;;;;;;;;;4786970;30;20041;-59
2022/05/12 12:48:49;;;;;;;7.88;3.88;;;;;;;;;;4786432;29;20398;-60
2022/05/12 12:51:27;;;;;;;6.75;3.58;;;;;;;;;;4804169;29;20043;-59
2022/05/12 12:56:38;;;;;;;7.93;3.80;;;;;;;;;;4804680;29;20415;-61
2022/05/12 12:59:07;;;;;;;8.70;4.40;;;;;;;;;;4804179;29;20031;-59
2022/05/12 13:01:44;;;;;;;10.35;4.63;;;;;;;;;;4804568;29;20027;-59
2022/05/12 13:04:10;;;;;;;7.88;4.45;;;;;;;;;;4804109;29;20046;-59
2022/05/12 13:06:37;;;;;;;10.63;4.68;;;;;;;;;;4803865;29;20092;-60
2022/05/12 13:09:05;;;;;;;8.85;4.50;;;;;;;;;;4819035;29;20061;-60
2022/05/12 13:11:32;;;;;;;7.65;4.00;;;;;;;;;;4811042;29;20101;-59
2022/05/12 13:13:58;;;;;;;8.52;4.20;;;;;;;;;;4811840;29;20102;-59
2022/05/12 13:16:30;;;;;;;9.15;4.38;;;;;;;;;;4814093;29;20034;-61
2022/05/12 13:18:56;;;;;;;7.80;4.05;;;;;;;;;;4810396;29;20122;-59
2022/05/12 13:21:24;;;;;;;5.85;4.07;;;;;;;;;;4811236;29;20049;-59
2022/05/12 13:24:01;;;;;;;7.85;4.30;;;;;;;;;;4808008;29;20134;-61
2022/05/12 13:26:27;;;;;;;9.80;4.68;;;;;;;;;;4811133;29;20107;-60
2022/05/12 13:28:54;;;;;;;7.60;4.55;;;;;;;;;;4816262;29;20672;-61
2022/05/12 13:31:35;;;;;;;8.10;4.45;;;;;;;;;;4821912;29;20067;-59
2022/05/12 13:34:13;;;;;;;7.78;3.85;;;;;;;;;;4821270;29;20030;-59
2022/05/12 13:36:42;;;;;;;9.27;3.92;;;;;;;;;;4815113;29;20490;-60
2022/05/12 13:39:09;;;;;;;7.93;4.00;;;;;;;;;;4812403;29;20056;-59
2022/05/12 13:41:38;;;;;;;10.27;4.38;;;;;;;;;;4811659;29;20039;-60
2022/05/12 13:44:10;;;;;;;6.07;4.53;;;;;;;;;;4813303;29;20026;-61
2022/05/12 13:46:37;;;;;;;7.20;3.95;;;;;;;;;;4813329;29;20696;-63
2022/05/12 13:49:05;;;;;;;10.35;4.50;;;;;;;;;;4811483;29;20054;-60
2022/05/12 13:51:46;;;;;;;8.30;4.03;;;;;;;;;;4817525;29;20054;-60
2022/05/12 13:54:24;;;;;;;8.02;4.00;;;;;;;;;;4811521;29;20041;-60
2022/05/12 13:56:51;;;;;;;8.95;4.05;;;;;;;;;;4811196;29;20062;-60
2022/05/12 13:59:20;;;;;;;9.30;3.85;;;;;;;;;;4804804;29;20034;-60
2022/05/12 14:01:46;;;;;;;7.03;3.92;;;;;;;;;;4810914;29;20027;-59
2022/05/12 14:04:15;;;;;;;10.00;3.88;;;;;;;;;;4810749;29;20038;-61
2022/05/12 14:06:51;;;;;;;9.02;4.10;;;;;;;;;;4812455;29;20030;-61
2022/05/12 14:09:31;;;;;;;5.82;3.65;;;;;;;;;;4812545;29;20057;-60
2022/05/12 14:12:08;;;;;;;9.68;3.90;;;;;;;;;;4809506;29;20046;-60
2022/05/12 14:20:19;;;;;;;6.25;3.30;;;;;;;;;;4818533;29;20064;-61
2022/05/12 14:22:46;;;;;;;10.55;3.35;;;;;;;;;;4812272;29;20499;-61
2022/05/12 14:25:12;;;;;;;8.45;3.72;;;;;;;;;;4811639;29;20073;-59
2022/05/12 14:27:39;;;;;;;7.80;3.88;;;;;;;;;;4813730;29;20045;-61
2022/05/12 14:30:05;;;;;;;7.70;3.60;;;;;;;;;;4813261;29;20037;-62
2022/05/12 14:32:39;;;;;;;8.57;4.15;;;;;;;;;;4815356;29;20030;-64
2022/05/12 14:35:06;;;;;;;9.07;4.13;;;;;;;;;;4817207;29;20042;-61
2022/05/12 14:37:32;;;;;;;8.45;3.72;;;;;;;;;;4810362;29;20518;-59
2022/05/12 14:39:59;;;;;;;8.68;3.97;;;;;;;;;;4811655;29;20036;-61
2022/05/12 14:42:25;;;;;;;10.13;3.97;;;;;;;;;;4811627;29;20579;-61
2022/05/12 14:44:52;;;;;;;8.27;4.45;;;;;;;;;;4810072;29;20027;-60
2022/05/12 14:47:22;;;;;;;11.77;4.10;;;;;;;;;;4812630;29;20117;-59
2022/05/12 14:49:49;;;;;;;11.15;5.25;;;;;;;;;;4815045;29;20042;-60
2022/05/12 14:52:18;;;;;;;6.75;3.67;;;;;;;;;;4814338;29;20035;-60
2022/05/12 14:54:44;;;;;;;8.63;3.72;;;;;;;;;;4812837;29;20049;-60
2022/05/12 14:57:11;;;;;;;7.65;3.85;;;;;;;;;;4809618;29;20026;-60
2022/05/12 14:59:37;;;;;;;6.30;3.50;;;;;;;;;;4809563;29;20043;-61
2022/05/12 15:02:04;;;;;;;6.90;3.65;;;;;;;;;;4812531;29;20038;-63
2022/05/12 15:04:31;;;;;;;8.75;3.63;;;;;;;;;;4814753;29;20148;-59
2022/05/12 15:06:58;;;;;;;12.02;4.47;;;;;;;;;;4813998;29;20023;-59
2022/05/12 15:09:24;;;;;;;7.95;3.40;;;;;;;;;;4814800;29;20053;-60
2022/05/12 15:11:50;;;;;;;6.43;3.53;;;;;;;;;;4813082;29;20122;-60
2022/05/12 15:14:16;;;;;;;8.77;3.65;;;;;;;;;;4810901;29;20023;-59
2022/05/12 15:16:43;;;;;;;9.43;3.60;;;;;;;;;;4813076;29;20095;-60
2022/05/12 15:19:11;;;;;;;8.55;4.32;;;;;;;;;;4818489;29;20118;-61
2022/05/12 15:21:37;;;;;;;8.48;3.65;;;;;;;;;;4821841;29;20546;-59
2022/05/12 15:24:04;;;;;;;7.43;3.50;;;;;;;;;;4803353;29;20039;-60